createdAt,value
2019-04-26T00:02:59.024Z,2.22
2019-04-26T00:08:06.905Z,3.71
2019-04-26T00:13:14.712Z,2.34
2019-04-26T00:18:22.563Z,2.44
2019-04-26T00:23:30.212Z,3.01
2019-04-26T00:28:38.068Z,2.05
2019-04-26T00:33:45.665Z,1.97
2019-04-26T00:38:53.621Z,2.11
2019-04-26T00:44:01.445Z,2.46
2019-04-26T00:49:09.306Z,2.88
2019-04-26T00:54:17.785Z,2.17
2019-04-26T00:59:24.691Z,1.99
2019-04-26T01:04:31.362Z,2.85
2019-04-26T01:09:39.206Z,2.77
2019-04-26T01:14:47.807Z,2.88
2019-04-26T01:19:55.537Z,2.89
2019-04-26T01:25:03.226Z,2.86
2019-04-26T01:30:10.990Z,2.50
2019-04-26T01:35:19.344Z,2.86
2019-04-26T01:40:26.172Z,3.14
2019-04-26T01:45:33.880Z,3.14
2019-04-26T01:50:41.588Z,3.46
2019-04-26T01:55:49.257Z,2.63
2019-04-26T02:00:57.057Z,3.41
2019-04-26T02:06:04.856Z,3.92
2019-04-26T02:11:12.650Z,4.07
2019-04-26T02:16:20.586Z,2.79
2019-04-26T02:21:28.400Z,3.09
2019-04-26T02:26:36.032Z,3.80
2019-04-26T02:31:44.889Z,2.33
2019-04-26T02:36:57.701Z,3.47
2019-04-26T02:41:59.882Z,4.81
2019-04-26T02:47:07.621Z,3.37
2019-04-26T02:52:15.626Z,3.64
2019-04-26T02:57:23.669Z,3.96
2019-04-26T03:02:33.280Z,2.93
2019-04-26T03:07:39.129Z,5.60
2019-04-26T03:12:46.008Z,3.87
2019-04-26T03:17:53.687Z,3.24
2019-04-26T03:23:01.396Z,4.07
2019-04-26T03:28:09.133Z,3.92
2019-04-26T03:33:16.949Z,3.54
2019-04-26T03:38:24.290Z,3.46
2019-04-26T03:43:34.418Z,4.14
2019-04-26T03:48:39.942Z,3.81
2019-04-26T03:53:46.605Z,4.87
2019-04-26T03:58:54.262Z,4.27
2019-04-26T04:04:02.343Z,6.43
2019-04-26T04:09:12.124Z,4.55
2019-04-26T04:14:20.695Z,7.12
2019-04-26T04:19:28.265Z,5.07
2019-04-26T04:24:36.102Z,4.96
2019-04-26T04:29:49.012Z,4.78
2019-04-26T04:34:52.754Z,5.01
2019-04-26T04:39:58.944Z,5.14
2019-04-26T04:45:06.849Z,5.79
2019-04-26T04:50:14.873Z,7.01
2019-04-26T04:55:22.668Z,8.73
2019-04-26T05:00:30.519Z,6.13
2019-04-26T05:05:38.612Z,7.06
2019-04-26T05:10:47.578Z,6.54
2019-04-26T05:15:54.839Z,8.16
2019-04-26T05:21:01.029Z,8.61
2019-04-26T05:26:08.966Z,8.21
2019-04-26T05:31:16.689Z,7.92
2019-04-26T05:36:24.422Z,9.05
2019-04-26T05:41:32.201Z,9.09
2019-04-26T05:46:39.900Z,9.28
2019-04-26T05:51:47.713Z,9.13
2019-04-26T05:56:56.253Z,8.88
2019-04-26T06:02:02.613Z,8.35
2019-04-26T06:07:10.933Z,8.66
2019-04-26T06:12:18.689Z,9.55
2019-04-26T06:17:26.476Z,12.47
2019-04-26T06:22:34.377Z,9.51
2019-04-26T06:27:42.121Z,11.50
2019-04-26T06:32:56.424Z,11.60
2019-04-26T06:37:57.485Z,11.39
2019-04-26T06:43:05.180Z,10.01
2019-04-26T06:48:14.193Z,10.36
2019-04-26T06:53:21.920Z,9.35
2019-04-26T06:58:29.629Z,10.54
2019-04-26T07:03:37.359Z,9.88
2019-04-26T07:08:56.672Z,9.12
2019-04-26T07:13:52.616Z,8.48
2019-04-26T07:19:01.376Z,8.14
2019-04-26T07:24:09.070Z,9.24
2019-04-26T07:29:16.777Z,10.00
2019-04-26T07:34:24.428Z,7.86
2019-04-26T07:39:32.868Z,9.40
2019-04-26T07:44:40.557Z,8.93
2019-04-26T07:49:48.653Z,8.38
2019-04-26T07:54:56.594Z,8.24
2019-04-26T08:00:04.338Z,8.84
2019-04-26T08:05:12.009Z,11.82
2019-04-26T08:10:19.696Z,10.79
2019-04-26T08:15:27.454Z,9.57
2019-04-26T08:20:35.097Z,10.60
2019-04-26T08:25:42.897Z,9.02
2019-04-26T08:30:50.530Z,11.83
2019-04-26T08:35:58.261Z,9.37
2019-04-26T08:41:08.076Z,10.67
2019-04-26T08:46:13.366Z,10.49
2019-04-26T08:51:22.063Z,10.35
2019-04-26T08:56:28.262Z,11.11
2019-04-26T09:01:36.004Z,11.30
2019-04-26T09:06:43.766Z,10.17
2019-04-26T09:11:59.604Z,11.95
2019-04-26T09:16:58.893Z,10.61
2019-04-26T09:22:12.883Z,13.73
2019-04-26T09:27:17.169Z,10.17
2019-04-26T09:32:24.220Z,11.66
2019-04-26T09:37:28.742Z,10.99
2019-04-26T09:42:39.265Z,9.98
2019-04-26T09:47:43.968Z,9.45
2019-04-26T09:52:51.697Z,10.77
2019-04-26T09:57:59.381Z,10.56
2019-04-26T10:03:09.314Z,11.02
2019-04-26T10:08:14.590Z,12.13
2019-04-26T10:13:21.747Z,11.66
2019-04-26T10:18:29.461Z,11.68
2019-04-26T10:23:37.141Z,11.17
2019-04-26T10:28:46.751Z,13.25
2019-04-26T10:33:52.098Z,13.91
2019-04-26T10:39:01.180Z,14.23
2019-04-26T10:44:08.896Z,13.49
2019-04-26T10:49:20.206Z,14.42
2019-04-26T10:54:24.198Z,14.82
2019-04-26T10:59:31.980Z,9.66
2019-04-26T11:04:41.477Z,9.07
2019-04-26T11:09:47.862Z,7.26
2019-04-26T11:14:56.950Z,7.57
2019-04-26T11:20:06.218Z,6.14
2019-04-26T11:25:11.241Z,6.03
2019-04-26T11:30:20.862Z,4.99
2019-04-26T11:35:29.243Z,4.98
2019-04-26T11:40:33.475Z,4.63
2019-04-26T11:45:41.121Z,4.37
2019-04-26T11:50:52.191Z,4.21
2019-04-26T11:56:00.293Z,5.71
2019-04-26T12:01:04.055Z,7.22
2019-04-26T12:06:11.872Z,4.67
2019-04-26T12:11:26.174Z,6.56
2019-04-26T12:16:28.313Z,4.77
2019-04-26T12:21:36.053Z,4.54
2019-04-26T12:26:46.249Z,4.46
2019-04-26T12:31:51.749Z,15.01
2019-04-26T12:36:59.495Z,5.52
2019-04-26T12:42:12.120Z,5.92
2019-04-26T12:47:15.879Z,6.32
2019-04-26T12:52:23.943Z,8.35
2019-04-26T12:57:31.663Z,10.06
2019-04-26T13:02:39.839Z,10.82
2019-04-26T13:07:47.700Z,10.05
2019-04-26T13:12:55.663Z,10.84
2019-04-26T13:18:07.321Z,13.10
2019-04-26T13:23:12.454Z,15.53
2019-04-26T13:28:21.870Z,15.77
2019-04-26T13:33:29.200Z,16.76
2019-04-26T13:38:39.381Z,15.31
2019-04-26T13:43:45.613Z,17.88
2019-04-26T13:48:45.247Z,17.86
2019-04-26T13:53:51.003Z,17.29
2019-04-26T13:58:59.810Z,18.65
2019-04-26T14:04:06.800Z,17.56
2019-04-26T14:09:13.543Z,18.60
2019-04-26T14:14:21.727Z,19.73
2019-04-26T14:19:29.642Z,20.17
2019-04-26T14:24:37.627Z,20.15
2019-04-26T14:29:46.553Z,19.84
2019-04-26T14:34:54.616Z,18.92
2019-04-26T14:40:16.840Z,19.93
2019-04-26T14:45:22.454Z,20.58
2019-04-26T14:50:17.643Z,21.53
2019-04-26T14:55:25.390Z,21.77
2019-04-26T15:00:33.968Z,21.23
2019-04-26T15:05:43.124Z,24.04
2019-04-26T15:10:49.099Z,23.65
2019-04-26T15:15:55.691Z,22.92
2019-04-26T15:21:04.239Z,25.54
2019-04-26T15:26:12.839Z,23.41
2019-04-26T15:31:21.746Z,24.15
2019-04-26T15:36:26.758Z,23.59
2019-04-26T15:41:34.599Z,24.24
2019-04-26T15:46:48.332Z,25.22
2019-04-26T15:51:49.797Z,26.92
2019-04-26T15:56:57.494Z,24.24
2019-04-26T16:02:05.303Z,27.83
2019-04-26T16:07:21.833Z,27.61
2019-04-26T16:12:24.573Z,26.21
2019-04-26T16:17:29.233Z,27.47
2019-04-26T16:22:37.103Z,28.05
2019-04-26T16:27:46.182Z,25.05
2019-04-26T16:32:58.873Z,29.75
2019-04-26T16:38:06.854Z,26.43
2019-04-26T16:43:10.542Z,25.16
2019-04-26T16:48:22.162Z,22.30
2019-04-26T16:53:43.692Z,24.07
2019-04-26T16:58:38.279Z,24.70
2019-04-26T17:03:45.213Z,24.70
2019-04-26T17:08:52.288Z,25.70
2019-04-26T17:13:57.035Z,24.47
2019-04-26T17:19:03.863Z,27.44
2019-04-26T17:24:12.198Z,24.94
2019-04-26T17:29:19.266Z,28.08
2019-04-26T17:34:29.062Z,26.83
2019-04-26T17:39:34.709Z,28.70
2019-04-26T17:44:42.555Z,25.96
2019-04-26T17:49:52.279Z,27.42
2019-04-26T17:54:58.238Z,28.87
2019-04-26T18:00:07.831Z,30.28
2019-04-26T18:05:13.369Z,31.42
2019-04-26T18:10:21.811Z,29.57
2019-04-26T18:15:29.872Z,27.17
2019-04-26T18:20:41.428Z,25.97
2019-04-26T18:25:46.360Z,26.23
2019-04-26T18:30:53.127Z,29.09
2019-04-26T18:36:00.057Z,29.76
2019-04-26T18:41:07.922Z,26.78
2019-04-26T18:46:16.201Z,29.81
2019-04-26T18:51:24.249Z,25.38
2019-04-26T18:56:36.999Z,27.85
2019-04-26T19:01:41.804Z,25.67
2019-04-26T19:06:47.350Z,28.34
2019-04-26T19:11:56.275Z,30.21
2019-04-26T19:17:02.410Z,29.15
2019-04-26T19:22:15.501Z,29.83
2019-04-26T19:27:22.582Z,32.48
2019-04-26T19:32:25.342Z,29.35
2019-04-26T19:37:36.666Z,30.55
2019-04-26T19:42:42.038Z,28.92
2019-04-26T19:47:48.032Z,30.36
2019-04-26T19:52:56.775Z,26.50
2019-04-26T19:58:04.684Z,29.03
2019-04-26T20:03:15.781Z,30.04
2019-04-26T20:08:21.524Z,30.88
2019-04-26T20:13:27.384Z,30.70
2019-04-26T20:18:38.747Z,27.06
2019-04-26T20:23:47.062Z,27.59
2019-04-26T20:28:51.388Z,29.08
2019-04-26T20:33:58.474Z,29.12
2019-04-26T20:39:06.701Z,28.05
2019-04-26T20:44:14.510Z,27.79
2019-04-26T20:49:22.369Z,29.31
2019-04-26T20:54:31.552Z,26.32
2019-04-26T20:59:37.558Z,29.40
2019-04-26T21:04:46.233Z,28.97
2019-04-26T21:09:52.858Z,28.31
2019-04-26T21:15:02.444Z,28.34
2019-04-26T21:20:08.870Z,30.76
2019-04-26T21:25:17.785Z,28.00
2019-04-26T21:30:25.590Z,28.44
2019-04-26T21:35:33.417Z,28.49
2019-04-26T21:40:41.268Z,27.87
2019-04-26T21:45:50.338Z,29.56
2019-04-26T21:50:58.199Z,27.84
2019-04-26T21:56:07.448Z,26.78
2019-04-26T22:01:15.715Z,31.26
2019-04-26T22:06:27.280Z,27.16
2019-04-26T22:11:28.476Z,26.91
2019-04-26T22:16:38.114Z,26.32
2019-04-26T22:21:43.637Z,28.44
2019-04-26T22:26:53.228Z,27.96
2019-04-26T22:32:00.230Z,29.78
2019-04-26T22:42:10.954Z,28.86
2019-04-26T22:47:18.678Z,29.13
2019-04-26T22:52:26.445Z,29.45
2019-04-26T22:57:34.694Z,28.05
2019-04-26T23:02:43.655Z,29.06
2019-04-26T23:07:50.255Z,28.57
2019-04-26T23:13:02.205Z,30.87
2019-04-26T23:18:08.319Z,28.44
2019-04-26T23:23:13.489Z,29.92
2019-04-26T23:28:19.998Z,29.39
2019-04-26T23:33:29.257Z,28.17
2019-04-26T23:38:37.731Z,29.51
2019-04-26T23:43:44.344Z,29.57
2019-04-26T23:48:53.734Z,28.09
2019-04-26T23:53:59.570Z,29.37
2019-04-26T23:59:07.271Z,33.21
